Arctic Hooper — VD3837 — position and weather

sailwx.info

Track history (hours):
 
Tides and Currents Weather Stations Pressure Air Temp Water Temp Dewpoint Dewpoint Depression Visibility Wind Speed Wind Dir Waves Ship Positions

Arctic Hooper

Last reported at 2017-Nov-19 04:46 UTC. Time now 2017-Nov-20 15:51 UTC.
Position N 49°09' W 123°29'.

Length 30 m; draft 5.1 m.

Type: Towing. MMSI: 316001068.

Date/timePositionNaut miles runAvg speedWind from/ knotsBaromVisibWave heightAir tempDewpointWater temp
2017-Nov-19 04:46N 49°09' W 123°29'3 9.1
2017-Nov-19 04:24N 49°08' W 123°24'4 9.1
2017-Nov-19 04:00N 49°06' W 123°19'5 9.9
2017-Nov-19 03:27N 49°07' W 123°11'510.2
2017-Nov-19 03:00N 49°08' W 123°04'5 9.6
2017-Nov-19 02:30N 49°09' W 122°57'3 5.9
2017-Nov-19 02:00N 49°12' W 122°54'0 0.0
2017-Nov-19 01:29N 49°12' W 122°54'0 0.0
2017-Nov-19 01:00N 49°12' W 122°54'0 0.0
2017-Nov-19 00:30N 49°12' W 122°54'3 6.5
2017-Nov-19 00:00N 49°09' W 122°58'4 8.5
2017-Nov-18 23:30N 49°08' W 123°04'4 7.8
2017-Nov-18 23:00N 49°07' W 123°10'4 7.5
2017-Nov-18 22:29N 49°07' W 123°15'4 7.6
2017-Nov-18 22:00N 49°06' W 123°21'4 8.9
2017-Nov-18 21:30N 49°08' W 123°27'5 9.0
2017-Nov-18 20:57N 49°09' W 123°34'7 0.6
2017-Nov-18 08:02N 49°08' W 123°24'3 9.6
2017-Nov-18 07:43N 49°06' W 123°19'210.7
2017-Nov-18 07:30N 49°07' W 123°16'711.5
2017-Nov-18 06:56N 49°07' W 123°06'512.3
2017-Nov-18 06:30N 49°09' W 122°59'4 7.3
2017-Nov-18 05:58N 49°12' W 122°54'0 0.0
2017-Nov-18 04:53N 49°12' W 122°54'0 0.0
2017-Nov-18 04:12N 49°12' W 122°54'0 0.0
2017-Nov-18 03:51N 49°12' W 122°54'1 2.2
2017-Nov-18 03:30N 49°11' W 122°55'4 7.1
2017-Nov-18 03:00N 49°09' W 122°60'4 7.7
2017-Nov-18 02:30N 49°07' W 123°05'4 7.4
2017-Nov-18 02:00N 49°07' W 123°10'4 7.3
2017-Nov-18 01:30N 49°07' W 123°16'4 8.1
2017-Nov-18 00:58N 49°07' W 123°23'5 9.2
2017-Nov-18 00:23N 49°09' W 123°30'4 9.4
2017-Nov-17 23:58N 49°10' W 123°36'11 0.7
2017-Nov-17 08:02N 49°06' W 123°20'1 9.9
2017-Nov-17 07:57N 49°06' W 123°19'5 9.7
2017-Nov-17 07:27N 49°07' W 123°12'510.8
2017-Nov-17 07:00N 49°08' W 123°04'611.6
2017-Nov-17 06:29N 49°10' W 122°56'2 3.6
2017-Nov-17 05:59N 49°12' W 122°54'0 0.0
2017-Nov-17 05:12N 49°12' W 122°54'0 0.0
2017-Nov-17 04:55N 49°12' W 122°54'0 0.0
2017-Nov-17 04:22N 49°12' W 122°54'1 2.1
2017-Nov-17 04:00N 49°11' W 122°55'3 6.5
2017-Nov-17 03:30N 49°09' W 122°59'4 6.9
2017-Nov-17 03:00N 49°08' W 123°04'3 7.0
2017-Nov-17 02:30N 49°07' W 123°09'4 7.5
2017-Nov-17 02:00N 49°08' W 123°15'4 8.2
2017-Nov-17 01:30N 49°06' W 123°20'4 8.7
2017-Nov-17 01:00N 49°07' W 123°27'5 9.0
2017-Nov-17 00:29N 49°09' W 123°34'4 8.9
2017-Nov-17 00:00N 49°10' W 123°40'3 0.2
2017-Nov-16 08:57N 49°11' W 123°35'8 9.9
2017-Nov-16 08:11N 49°08' W 123°24'210.3
2017-Nov-16 07:56N 49°07' W 123°21'4 9.6
2017-Nov-16 07:30N 49°08' W 123°14'610.8
2017-Nov-16 06:58N 49°07' W 123°06'511.6
2017-Nov-16 06:30N 49°09' W 122°58'4 7.1
2017-Nov-16 06:00N 49°12' W 122°54'0 0.0
2017-Nov-16 05:30N 49°12' W 122°54'0 0.0
2017-Nov-16 04:59N 49°12' W 122°54'0 0.0
2017-Nov-16 04:29N 49°12' W 122°54'0 0.1
2017-Nov-16 04:00N 49°12' W 122°54'3 6.0
2017-Nov-16 03:29N 49°09' W 122°57'3 6.6
2017-Nov-16 03:00N 49°09' W 123°02'3 6.9
2017-Nov-16 02:30N 49°07' W 123°07'4 7.0
2017-Nov-16 02:00N 49°07' W 123°12'4 7.5
2017-Nov-16 01:30N 49°06' W 123°17'4 8.4
2017-Nov-16 00:59N 49°07' W 123°24'5 9.0
2017-Nov-16 00:29N 49°09' W 123°31'4 8.7
2017-Nov-15 23:58N 49°10' W 123°37'2 0.2
2017-Nov-15 10:13N 49°10' W 123°34'3 9.8
2017-Nov-15 09:57N 49°09' W 123°30'4 9.7
2017-Nov-15 09:30N 49°07' W 123°24'5 8.8
2017-Nov-15 08:59N 49°07' W 123°17'3 7.0
2017-Nov-15 08:30N 49°07' W 123°12'4 5.9
2017-Nov-15 07:50N 49°07' W 123°06'2 7.0
2017-Nov-15 07:30N 49°08' W 123°03'5 9.7
2017-Nov-15 06:57N 49°10' W 122°56'2 3.4
2017-Nov-15 06:30N 49°12' W 122°54'0 0.0
2017-Nov-15 05:58N 49°12' W 122°54'0 0.0
2017-Nov-15 05:30N 49°12' W 122°54'0 0.0
2017-Nov-15 05:00N 49°12' W 122°54'1 1.3
2017-Nov-15 04:30N 49°11' W 122°55'3 5.7
2017-Nov-15 04:00N 49°09' W 122°58'3 5.9
2017-Nov-15 03:30N 49°09' W 123°03'3 6.0
2017-Nov-15 02:56N 49°07' W 123°07'3 6.1
2017-Nov-15 02:30N 49°07' W 123°11'3 6.4
2017-Nov-15 02:00N 49°07' W 123°16'4 7.0
2017-Nov-15 01:28N 49°07' W 123°22'4 8.0
2017-Nov-15 01:00N 49°08' W 123°27'4 8.2
2017-Nov-15 00:30N 49°09' W 123°33'4 8.3
2017-Nov-14 23:59N 49°10' W 123°39'  
2017-Nov-12 04:34N 49°10' W 123°32'1 9.9
2017-Nov-12 04:26N 49°09' W 123°30'4 9.9
2017-Nov-12 03:59N 49°08' W 123°24'6 9.6
2017-Nov-12 03:23N 49°07' W 123°16'410.5
2017-Nov-12 03:00N 49°07' W 123°09'711.5
2017-Nov-12 02:25N 49°09' W 122°60'4 9.7
2017-Nov-12 02:00N 49°11' W 122°55'0 0.8
2017-Nov-12 01:27N 49°12' W 122°54'0 0.0
2017-Nov-12 00:57N 49°12' W 122°54'1 1.8
2017-Nov-12 00:30N 49°11' W 122°55'4 7.2
2017-Nov-12 00:00N 49°09' W 122°60'4 8.3
2017-Nov-11 23:29N 49°07' W 123°05'4 8.3
2017-Nov-11 22:58N 49°07' W 123°12'4 8.3
2017-Nov-11 22:30N 49°06' W 123°18'5 8.3
2017-Nov-11 21:55N 49°08' W 123°24'4 9.6
2017-Nov-11 21:30N 49°11' W 123°29'5 9.3
2017-Nov-11 20:57N 49°14' W 123°36'4 9.4
2017-Nov-11 20:30N 49°14' W 123°42'7 0.6
2017-Nov-11 09:04N 49°10' W 123°33'2 9.4
2017-Nov-11 08:49N 49°09' W 123°30'3 9.3
2017-Nov-11 08:30N 49°08' W 123°26'5 9.3
2017-Nov-11 08:00N 49°06' W 123°19'7 9.3
2017-Nov-11 07:17N 49°07' W 123°09'310.2
2017-Nov-11 06:58N 49°08' W 123°04'5 9.8
2017-Nov-11 06:27N 49°09' W 122°57'3 6.5
2017-Nov-11 06:00N 49°12' W 122°54'0 0.0
2017-Nov-11 05:29N 49°12' W 122°54'0 0.0
2017-Nov-11 05:00N 49°12' W 122°54'0 0.0
2017-Nov-11 04:29N 49°12' W 122°54'1 1.5
2017-Nov-11 04:00N 49°11' W 122°55'3 6.3
2017-Nov-11 03:29N 49°09' W 122°59'3 7.0
2017-Nov-11 03:00N 49°08' W 123°04'4 6.8
2017-Nov-11 02:26N 49°07' W 123°09'3 6.7
2017-Nov-11 02:00N 49°08' W 123°14'3 7.0
2017-Nov-11 01:30N 49°06' W 123°18'5 8.7
2017-Nov-11 00:56N 49°08' W 123°25'4 9.4
2017-Nov-11 00:30N 49°10' W 123°31'5 9.2
2017-Nov-10 23:58N 49°12' W 123°38'4 0.2
2017-Nov-10 08:58N 49°10' W 123°33'5 9.2
2017-Nov-10 08:28N 49°08' W 123°27'4 8.9
2017-Nov-10 08:00N 49°06' W 123°21'510.0
2017-Nov-10 07:29N 49°08' W 123°13'610.2
2017-Nov-10 06:55N 49°07' W 123°04'410.2
2017-Nov-10 06:30N 49°09' W 122°59'4 7.1
2017-Nov-10 06:00N 49°12' W 122°54'0 0.1
2017-Nov-10 05:30N 49°12' W 122°54'0 0.0
2017-Nov-10 05:00N 49°12' W 122°54'0 0.0
2017-Nov-10 04:30N 49°12' W 122°54'0 0.2
2017-Nov-10 04:00N 49°12' W 122°55'3 6.1
2017-Nov-10 03:29N 49°09' W 122°58'4 7.5
2017-Nov-10 03:00N 49°08' W 123°03'4 7.2
2017-Nov-10 02:29N 49°06' W 123°08'4 7.3
2017-Nov-10 01:58N 49°08' W 123°13'4 7.5
2017-Nov-10 01:30N 49°06' W 123°18'5 8.7
2017-Nov-10 00:53N 49°08' W 123°26'4 9.3
2017-Nov-10 00:30N 49°10' W 123°31'5 9.0
2017-Nov-09 23:54N 49°12' W 123°38'4 0.3
2017-Nov-09 08:55N 49°10' W 123°33'4 9.2
2017-Nov-09 08:28N 49°08' W 123°27'4 8.9
2017-Nov-09 08:00N 49°07' W 123°21'510.2
2017-Nov-09 07:30N 49°08' W 123°14'611.3
2017-Nov-09 07:00N 49°07' W 123°05'510.5
2017-Nov-09 06:30N 49°09' W 122°58'3 6.7
2017-Nov-09 06:00N 49°12' W 122°54'0 0.0
2017-Nov-09 05:30N 49°12' W 122°54'0 0.0
2017-Nov-09 05:00N 49°12' W 122°54'  
Track history (hours):
 
Tides and Currents Weather Stations Pressure Air Temp Water Temp Dewpoint Dewpoint Depression Visibility Wind Speed Wind Dir Waves Ship Positions

Arctic Hooper

Last reported at 2017-Nov-19 04:46 UTC. Time now 2017-Nov-20 15:51 UTC.
Position N 49°09' W 123°29'.

Length 30 m; draft 5.1 m.

Type: Towing. MMSI: 316001068.

Date/timePositionNaut miles runAvg speedWind from/ knotsBaromVisibWave heightAir tempDewpointWater temp
2017-Nov-19 04:46N 49°09' W 123°29'3 9.1
2017-Nov-19 04:24N 49°08' W 123°24'4 9.1
2017-Nov-19 04:00N 49°06' W 123°19'5 9.9
2017-Nov-19 03:27N 49°07' W 123°11'510.2
2017-Nov-19 03:00N 49°08' W 123°04'5 9.6
2017-Nov-19 02:30N 49°09' W 122°57'3 5.9
2017-Nov-19 02:00N 49°12' W 122°54'0 0.0
2017-Nov-19 01:29N 49°12' W 122°54'0 0.0
2017-Nov-19 01:00N 49°12' W 122°54'0 0.0
2017-Nov-19 00:30N 49°12' W 122°54'3 6.5
2017-Nov-19 00:00N 49°09' W 122°58'4 8.5
2017-Nov-18 23:30N 49°08' W 123°04'4 7.8
2017-Nov-18 23:00N 49°07' W 123°10'4 7.5
2017-Nov-18 22:29N 49°07' W 123°15'4 7.6
2017-Nov-18 22:00N 49°06' W 123°21'4 8.9
2017-Nov-18 21:30N 49°08' W 123°27'5 9.0
2017-Nov-18 20:57N 49°09' W 123°34'7 0.6
2017-Nov-18 08:02N 49°08' W 123°24'3 9.6
2017-Nov-18 07:43N 49°06' W 123°19'210.7
2017-Nov-18 07:30N 49°07' W 123°16'711.5
2017-Nov-18 06:56N 49°07' W 123°06'512.3
2017-Nov-18 06:30N 49°09' W 122°59'4 7.3
2017-Nov-18 05:58N 49°12' W 122°54'0 0.0
2017-Nov-18 04:53N 49°12' W 122°54'0 0.0
2017-Nov-18 04:12N 49°12' W 122°54'0 0.0
2017-Nov-18 03:51N 49°12' W 122°54'1 2.2
2017-Nov-18 03:30N 49°11' W 122°55'4 7.1
2017-Nov-18 03:00N 49°09' W 122°60'4 7.7
2017-Nov-18 02:30N 49°07' W 123°05'4 7.4
2017-Nov-18 02:00N 49°07' W 123°10'4 7.3
2017-Nov-18 01:30N 49°07' W 123°16'4 8.1
2017-Nov-18 00:58N 49°07' W 123°23'5 9.2
2017-Nov-18 00:23N 49°09' W 123°30'4 9.4
2017-Nov-17 23:58N 49°10' W 123°36'11 0.7
2017-Nov-17 08:02N 49°06' W 123°20'1 9.9
2017-Nov-17 07:57N 49°06' W 123°19'5 9.7
2017-Nov-17 07:27N 49°07' W 123°12'510.8
2017-Nov-17 07:00N 49°08' W 123°04'611.6
2017-Nov-17 06:29N 49°10' W 122°56'2 3.6
2017-Nov-17 05:59N 49°12' W 122°54'0 0.0
2017-Nov-17 05:12N 49°12' W 122°54'0 0.0
2017-Nov-17 04:55N 49°12' W 122°54'0 0.0
2017-Nov-17 04:22N 49°12' W 122°54'1 2.1
2017-Nov-17 04:00N 49°11' W 122°55'3 6.5
2017-Nov-17 03:30N 49°09' W 122°59'4 6.9
2017-Nov-17 03:00N 49°08' W 123°04'3 7.0
2017-Nov-17 02:30N 49°07' W 123°09'4 7.5
2017-Nov-17 02:00N 49°08' W 123°15'4 8.2
2017-Nov-17 01:30N 49°06' W 123°20'4 8.7
2017-Nov-17 01:00N 49°07' W 123°27'5 9.0
2017-Nov-17 00:29N 49°09' W 123°34'4 8.9
2017-Nov-17 00:00N 49°10' W 123°40'3 0.2
2017-Nov-16 08:57N 49°11' W 123°35'8 9.9
2017-Nov-16 08:11N 49°08' W 123°24'210.3
2017-Nov-16 07:56N 49°07' W 123°21'4 9.6
2017-Nov-16 07:30N 49°08' W 123°14'610.8
2017-Nov-16 06:58N 49°07' W 123°06'511.6
2017-Nov-16 06:30N 49°09' W 122°58'4 7.1
2017-Nov-16 06:00N 49°12' W 122°54'0 0.0
2017-Nov-16 05:30N 49°12' W 122°54'0 0.0
2017-Nov-16 04:59N 49°12' W 122°54'0 0.0
2017-Nov-16 04:29N 49°12' W 122°54'0 0.1
2017-Nov-16 04:00N 49°12' W 122°54'3 6.0
2017-Nov-16 03:29N 49°09' W 122°57'3 6.6
2017-Nov-16 03:00N 49°09' W 123°02'3 6.9
2017-Nov-16 02:30N 49°07' W 123°07'4 7.0
2017-Nov-16 02:00N 49°07' W 123°12'4 7.5
2017-Nov-16 01:30N 49°06' W 123°17'4 8.4
2017-Nov-16 00:59N 49°07' W 123°24'5 9.0
2017-Nov-16 00:29N 49°09' W 123°31'4 8.7
2017-Nov-15 23:58N 49°10' W 123°37'2 0.2
2017-Nov-15 10:13N 49°10' W 123°34'3 9.8
2017-Nov-15 09:57N 49°09' W 123°30'4 9.7
2017-Nov-15 09:30N 49°07' W 123°24'5 8.8
2017-Nov-15 08:59N 49°07' W 123°17'3 7.0
2017-Nov-15 08:30N 49°07' W 123°12'4 5.9
2017-Nov-15 07:50N 49°07' W 123°06'2 7.0
2017-Nov-15 07:30N 49°08' W 123°03'5 9.7
2017-Nov-15 06:57N 49°10' W 122°56'2 3.4
2017-Nov-15 06:30N 49°12' W 122°54'0 0.0
2017-Nov-15 05:58N 49°12' W 122°54'0 0.0
2017-Nov-15 05:30N 49°12' W 122°54'0 0.0
2017-Nov-15 05:00N 49°12' W 122°54'1 1.3
2017-Nov-15 04:30N 49°11' W 122°55'3 5.7
2017-Nov-15 04:00N 49°09' W 122°58'3 5.9
2017-Nov-15 03:30N 49°09' W 123°03'3 6.0
2017-Nov-15 02:56N 49°07' W 123°07'3 6.1
2017-Nov-15 02:30N 49°07' W 123°11'3 6.4
2017-Nov-15 02:00N 49°07' W 123°16'4 7.0
2017-Nov-15 01:28N 49°07' W 123°22'4 8.0
2017-Nov-15 01:00N 49°08' W 123°27'4 8.2
2017-Nov-15 00:30N 49°09' W 123°33'4 8.3
2017-Nov-14 23:59N 49°10' W 123°39'  
2017-Nov-12 04:34N 49°10' W 123°32'1 9.9
2017-Nov-12 04:26N 49°09' W 123°30'4 9.9
2017-Nov-12 03:59N 49°08' W 123°24'6 9.6
2017-Nov-12 03:23N 49°07' W 123°16'410.5
2017-Nov-12 03:00N 49°07' W 123°09'711.5
2017-Nov-12 02:25N 49°09' W 122°60'4 9.7
2017-Nov-12 02:00N 49°11' W 122°55'0 0.8
2017-Nov-12 01:27N 49°12' W 122°54'0 0.0
2017-Nov-12 00:57N 49°12' W 122°54'1 1.8
2017-Nov-12 00:30N 49°11' W 122°55'4 7.2
2017-Nov-12 00:00N 49°09' W 122°60'4 8.3
2017-Nov-11 23:29N 49°07' W 123°05'4 8.3
2017-Nov-11 22:58N 49°07' W 123°12'4 8.3
2017-Nov-11 22:30N 49°06' W 123°18'5 8.3
2017-Nov-11 21:55N 49°08' W 123°24'4 9.6
2017-Nov-11 21:30N 49°11' W 123°29'5 9.3
2017-Nov-11 20:57N 49°14' W 123°36'4 9.4
2017-Nov-11 20:30N 49°14' W 123°42'7 0.6
2017-Nov-11 09:04N 49°10' W 123°33'2 9.4
2017-Nov-11 08:49N 49°09' W 123°30'3 9.3
2017-Nov-11 08:30N 49°08' W 123°26'5 9.3
2017-Nov-11 08:00N 49°06' W 123°19'7 9.3
2017-Nov-11 07:17N 49°07' W 123°09'310.2
2017-Nov-11 06:58N 49°08' W 123°04'5 9.8
2017-Nov-11 06:27N 49°09' W 122°57'3 6.5
2017-Nov-11 06:00N 49°12' W 122°54'0 0.0
2017-Nov-11 05:29N 49°12' W 122°54'0 0.0
2017-Nov-11 05:00N 49°12' W 122°54'0 0.0
2017-Nov-11 04:29N 49°12' W 122°54'1 1.5
2017-Nov-11 04:00N 49°11' W 122°55'3 6.3
2017-Nov-11 03:29N 49°09' W 122°59'3 7.0
2017-Nov-11 03:00N 49°08' W 123°04'4 6.8
2017-Nov-11 02:26N 49°07' W 123°09'3 6.7
2017-Nov-11 02:00N 49°08' W 123°14'3 7.0
2017-Nov-11 01:30N 49°06' W 123°18'5 8.7
2017-Nov-11 00:56N 49°08' W 123°25'4 9.4
2017-Nov-11 00:30N 49°10' W 123°31'5 9.2
2017-Nov-10 23:58N 49°12' W 123°38'4 0.2
2017-Nov-10 08:58N 49°10' W 123°33'5 9.2
2017-Nov-10 08:28N 49°08' W 123°27'4 8.9
2017-Nov-10 08:00N 49°06' W 123°21'510.0
2017-Nov-10 07:29N 49°08' W 123°13'610.2
2017-Nov-10 06:55N 49°07' W 123°04'410.2
2017-Nov-10 06:30N 49°09' W 122°59'4 7.1
2017-Nov-10 06:00N 49°12' W 122°54'0 0.1
2017-Nov-10 05:30N 49°12' W 122°54'0 0.0
2017-Nov-10 05:00N 49°12' W 122°54'0 0.0
2017-Nov-10 04:30N 49°12' W 122°54'0 0.2
2017-Nov-10 04:00N 49°12' W 122°55'3 6.1
2017-Nov-10 03:29N 49°09' W 122°58'4 7.5
2017-Nov-10 03:00N 49°08' W 123°03'4 7.2
2017-Nov-10 02:29N 49°06' W 123°08'4 7.3
2017-Nov-10 01:58N 49°08' W 123°13'4 7.5
2017-Nov-10 01:30N 49°06' W 123°18'5 8.7
2017-Nov-10 00:53N 49°08' W 123°26'4 9.3
2017-Nov-10 00:30N 49°10' W 123°31'5 9.0
2017-Nov-09 23:54N 49°12' W 123°38'4 0.3
2017-Nov-09 08:55N 49°10' W 123°33'4 9.2
2017-Nov-09 08:28N 49°08' W 123°27'4 8.9
2017-Nov-09 08:00N 49°07' W 123°21'510.2
2017-Nov-09 07:30N 49°08' W 123°14'611.3
2017-Nov-09 07:00N 49°07' W 123°05'510.5
2017-Nov-09 06:30N 49°09' W 122°58'3 6.7
2017-Nov-09 06:00N 49°12' W 122°54'0 0.0
2017-Nov-09 05:30N 49°12' W 122°54'0 0.0
2017-Nov-09 05:00N 49°12' W 122°54'  

Dump ship's entire track history